• Join FlightAware (Why Join?)
  • Login
  • US Flag 
05:18AM EDT


 

Airport Tracker/Info


-or-


 

Live Flight TrackerFlight Track Log ✈ SWA1319 ✈ 17-Apr-2013 ✈ KDAL - KMCI

Flight Track Log - Related Links

Times and Time Zones

All times are in EDT time to prevent confusion due to time zone crossing. See the SWA1319 flight status page for this flight to view local times or setup timezone preferences in your user account.

Time Position Orientation Groundspeed Altitude Reporting Facility
EDT Latitude Longitude Course Direction KTS MPH feet Rate Location/Type
03:35PM 32.7667 -96.7500 128° Southeast 230 265 5,800  Level Dallas / Fort Worth TRACON
03:36PM 32.8333 -96.7167 23° Northeast 313 360 7,600 2,040 Climbing Dallas / Fort Worth TRACON
03:38PM 33.0550 -96.7517 352° North 351 404 12,700 1,980 Climbing Fort Worth Center
03:39PM 33.4529 -96.6494 North  Level FlightAware Approximate
03:39PM 33.1469 -96.7683 351° North 368 423 14,300  Level Fort Worth Center
03:40PM 33.2661 -96.7897 351° North 387 445 16,500 1,980 Climbing Fort Worth Center
03:41PM 33.3664 -96.8067 352° North 393 452 18,300 1,740 Climbing Fort Worth Center
03:42PM 33.4894 -96.8306 351° North 407 468 20,000 1,620 Climbing Fort Worth Center
03:43PM 33.6022 -96.8497 352° North 413 475 21,600 1,680 Climbing Fort Worth Center
03:44PM 33.7214 -96.8542 358° North 418 481 23,500 1,500 Climbing Fort Worth Center
03:45PM 33.8297 -96.8233 13° North 432 497 24,700 1,080 Climbing Fort Worth Center
03:46PM 33.9464 -96.7875 14° North 432 497 25,700 600 Climbing Fort Worth Center
03:47PM 34.0694 -96.7492 14° North 439 505 26,000 120 Climbing Fort Worth Center
03:48PM 34.1964 -96.7103 14° North 427 491 26,000 180 Level Fort Worth Center
03:49PM 34.3172 -96.6742 14° North 433 498 26,400 600 Climbing Fort Worth Center
03:50PM 34.4400 -96.6356 15° North 438 504 27,300 1,140 Climbing Fort Worth Center
03:51PM 34.5650 -96.5964 14° North 448 516 28,700 1,080 Climbing Fort Worth Center
03:52PM 34.6900 -96.5550 15° North 453 521 29,500 1,020 Climbing Fort Worth Center
03:53PM 34.8169 -96.5156 14° North 453 521 30,800 1,020 Climbing Fort Worth Center
03:54PM 34.9417 -96.4739 15° North 458 527 31,600 600 Climbing Fort Worth Center
03:55PM 35.0708 -96.4344 14° North 463 533 32,100 660 Climbing Fort Worth Center
03:56PM 35.2019 -96.3922 15° North 468 539 33,000 300 Climbing Fort Worth Center
03:58PM 35.4311 -96.3169 15° North 482 555 33,000  Level Kansas City Center
03:59PM 35.5608 -96.2756 15° North 483 556 33,000  Level Kansas City Center
04:00PM 35.6914 -96.2328 15° North 486 559 33,000  Level Kansas City Center
04:01PM 35.8333 -96.1872 15° North 486 559 33,000  Level Kansas City Center
04:02PM 35.9644 -96.1456 14° North 484 557 33,000  Level Kansas City Center
04:03PM 36.0961 -96.1033 15° North 485 558 33,000  Level Kansas City Center
04:04PM 36.2272 -96.0603 15° North 484 557 33,000  Level Kansas City Center
04:05PM 36.3847 -96.0097 14° North 482 555 33,000  Level Kansas City Center
04:06PM 36.5153 -95.9661 15° North 480 552 33,000  Level Kansas City Center
04:07PM 36.6453 -95.9231 15° North 478 550 33,000  Level Kansas City Center
04:08PM 36.7733 -95.8803 15° North 474 545 33,000  Level Kansas City Center
04:09PM 36.9011 -95.8389 15° North 471 542 33,000  Level Kansas City Center
04:10PM 37.0272 -95.7975 15° North 466 536 33,000  Level Kansas City Center
04:11PM 37.1531 -95.7539 15° North 468 539 33,000  Level Kansas City Center
04:12PM 37.2794 -95.7119 15° North 468 539 33,000 -360 Level Kansas City Center
04:13PM 37.4047 -95.6686 15° North 466 536 32,300 -1,020 Descending Kansas City Center
04:14PM 37.5556 -95.6169 15° North 465 535 31,000 -1,140 Descending Kansas City Center
04:15PM 37.6803 -95.5803 13° North 460 529 30,000 -960 Descending Kansas City Center
04:16PM 37.8069 -95.5700 North 456 525 29,100 -960 Descending Kansas City Center
04:17PM 37.9458 -95.5475 North 459 528 28,000 -960 Descending Kansas City Center
04:18PM 38.0703 -95.5303 North 463 533 27,100 -900 Descending Kansas City Center
04:19PM 38.1939 -95.5133 North 464 534 26,200 -960 Descending Kansas City Center
04:21PM 38.3372 -95.4919 North 464 534 25,100 -1,080 Descending Kansas City Center
04:22PM 38.4583 -95.4731 North 459 528 24,000 -1,680 Descending Kansas City Center
04:23PM 38.5881 -95.4544 North 425 489 21,800 -2,040 Descending Kansas City Center
04:24PM 38.6972 -95.4369 North 411 473 19,800 -2,160 Descending Kansas City Center
04:25PM 38.8167 -95.4031 12° North 400 460 17,400 -2,220 Descending Kansas City Center
04:26PM 38.8878 -95.3033 47° Northeast 397 457 15,400 -2,040 Descending Kansas City Center
04:27PM 38.9678 -95.1925 47° Northeast 381 438 13,200 -1,740 Descending Kansas City Center
04:28PM 39.0342 -95.0967 48° Northeast 378 435 11,900 -1,200 Descending Kansas City Center
04:29PM 39.1094 -94.9892 48° Northeast 367 422 10,800 -1,080 Descending Kansas City Center
04:30PM 39.1706 -94.9028 48° Northeast 345 397 9,700 -1,200 Descending Kansas City Center
04:31PM 39.2547 -94.8456 28° Northeast 316 364 8,300 -1,440 Descending Kansas City Center
04:32PM 39.3344 -94.8156 16° North 313 360 6,800 -1,560 Descending Kansas City Center
04:33PM 39.4267 -94.7822 16° North 310 357 5,100 -1,260 Descending Kansas City Center
04:34PM 39.5036 -94.7706 North 293 337 4,300 -960 Descending Kansas City Center
04:35PM 39.5428 -94.6944 56° Northeast 254 292 3,200 -600 Descending Kansas City Center
04:36PM 39.4986 -94.6694 156° South 195 224 3,100 -60 Descending Kansas City Center
04:37PM 39.4456 -94.6842 192° South 174 200 3,100 -240 Level Kansas City Center
04:38PM 39.4022 -94.6969 193° South 169 194 2,700 -540 Descending Kansas City Center
04:39PM 39.3647 -94.7083 193° South 149 171 2,000 -780 Descending Kansas City Center
04:40PM 39.3183 -94.7219 193° South 155 178 1,100 -900 Descending Kansas City Center